sensor_id;sensor_type;location;lat;lon;timestamp;temperature;humidity
28069;DHT22;15382;47.578;8.086;2023-07-29T00:01:56;16.30;99.90
28069;DHT22;15382;47.578;8.086;2023-07-29T00:11:57;16.30;99.90
28069;DHT22;15382;47.578;8.086;2023-07-29T00:21:57;16.30;99.90
28069;DHT22;15382;47.578;8.086;2023-07-29T00:31:58;16.30;99.90
28069;DHT22;15382;47.578;8.086;2023-07-29T00:41:59;16.30;99.90
28069;DHT22;15382;47.578;8.086;2023-07-29T00:52:00;16.20;99.90
28069;DHT22;15382;47.578;8.086;2023-07-29T01:02:00;16.40;99.90
28069;DHT22;15382;47.578;8.086;2023-07-29T01:22:28;16.40;99.90
28069;DHT22;15382;47.578;8.086;2023-07-29T01:32:47;16.40;99.90
28069;DHT22;15382;47.578;8.086;2023-07-29T01:42:49;16.40;99.90
28069;DHT22;15382;47.578;8.086;2023-07-29T01:52:49;16.40;99.90
28069;DHT22;15382;47.578;8.086;2023-07-29T02:02:50;16.30;99.90
28069;DHT22;15382;47.578;8.086;2023-07-29T02:12:51;16.40;99.90
28069;DHT22;15382;47.578;8.086;2023-07-29T02:22:52;16.40;99.90
28069;DHT22;15382;47.578;8.086;2023-07-29T02:32:52;16.40;99.90
28069;DHT22;15382;47.578;8.086;2023-07-29T02:42:53;16.40;99.90
28069;DHT22;15382;47.578;8.086;2023-07-29T02:52:54;16.40;99.90
28069;DHT22;15382;47.578;8.086;2023-07-29T03:02:54;16.40;99.90
28069;DHT22;15382;47.578;8.086;2023-07-29T03:12:55;16.50;99.90
28069;DHT22;15382;47.578;8.086;2023-07-29T03:22:56;16.50;99.90
28069;DHT22;15382;47.578;8.086;2023-07-29T03:32:57;16.50;99.90
28069;DHT22;15382;47.578;8.086;2023-07-29T03:42:58;16.40;99.90
28069;DHT22;15382;47.578;8.086;2023-07-29T03:52:59;16.20;99.90
28069;DHT22;15382;47.578;8.086;2023-07-29T04:02:59;16.00;99.90
28069;DHT22;15382;47.578;8.086;2023-07-29T04:13:00;15.90;99.90
28069;DHT22;15382;47.578;8.086;2023-07-29T04:23:01;16.00;99.90
28069;DHT22;15382;47.578;8.086;2023-07-29T04:33:01;16.20;99.90
28069;DHT22;15382;47.578;8.086;2023-07-29T04:43:02;16.30;99.90
28069;DHT22;15382;47.578;8.086;2023-07-29T04:53:03;16.30;99.90
28069;DHT22;15382;47.578;8.086;2023-07-29T05:03:03;16.40;99.90
28069;DHT22;15382;47.578;8.086;2023-07-29T05:13:04;16.50;99.90
28069;DHT22;15382;47.578;8.086;2023-07-29T05:23:05;16.60;99.90
28069;DHT22;15382;47.578;8.086;2023-07-29T05:33:05;16.80;99.90
28069;DHT22;15382;47.578;8.086;2023-07-29T05:43:09;16.90;99.90
28069;DHT22;15382;47.578;8.086;2023-07-29T05:53:09;17.10;99.90
28069;DHT22;15382;47.578;8.086;2023-07-29T06:03:10;17.10;99.90
28069;DHT22;15382;47.578;8.086;2023-07-29T06:13:11;17.40;99.90
28069;DHT22;15382;47.578;8.086;2023-07-29T06:23:12;17.90;99.90
28069;DHT22;15382;47.578;8.086;2023-07-29T06:33:13;18.00;99.90
28069;DHT22;15382;47.578;8.086;2023-07-29T06:43:13;18.50;99.90
28069;DHT22;15382;47.578;8.086;2023-07-29T06:53:14;19.10;99.90
28069;DHT22;15382;47.578;8.086;2023-07-29T07:03:15;19.20;99.90
28069;DHT22;15382;47.578;8.086;2023-07-29T07:13:15;19.70;99.90
28069;DHT22;15382;47.578;8.086;2023-07-29T07:23:16;20.10;99.90
28069;DHT22;15382;47.578;8.086;2023-07-29T07:33:17;21.00;99.90
28069;DHT22;15382;47.578;8.086;2023-07-29T07:43:17;20.90;99.90
28069;DHT22;15382;47.578;8.086;2023-07-29T07:53:18;21.40;99.90
28069;DHT22;15382;47.578;8.086;2023-07-29T08:03:20;22.10;99.90
28069;DHT22;15382;47.578;8.086;2023-07-29T08:13:21;22.20;99.90
28069;DHT22;15382;47.578;8.086;2023-07-29T08:23:21;22.50;99.90
28069;DHT22;15382;47.578;8.086;2023-07-29T08:33:22;22.60;99.90
28069;DHT22;15382;47.578;8.086;2023-07-29T08:43:25;23.30;99.90
28069;DHT22;15382;47.578;8.086;2023-07-29T08:53:29;23.90;99.90
28069;DHT22;15382;47.578;8.086;2023-07-29T09:03:29;24.10;99.90
28069;DHT22;15382;47.578;8.086;2023-07-29T09:13:30;24.50;99.90
28069;DHT22;15382;47.578;8.086;2023-07-29T09:23:50;25.40;99.90
28069;DHT22;15382;47.578;8.086;2023-07-29T09:34:00;26.20;99.90
28069;DHT22;15382;47.578;8.086;2023-07-29T09:44:02;26.30;99.90
28069;DHT22;15382;47.578;8.086;2023-07-29T09:54:04;25.40;99.90
28069;DHT22;15382;47.578;8.086;2023-07-29T10:04:05;25.80;99.90
28069;DHT22;15382;47.578;8.086;2023-07-29T10:14:05;25.50;99.90
28069;DHT22;15382;47.578;8.086;2023-07-29T10:24:09;25.50;99.90
28069;DHT22;15382;47.578;8.086;2023-07-29T10:34:12;25.40;99.90
28069;DHT22;15382;47.578;8.086;2023-07-29T10:54:41;26.90;99.90
28069;DHT22;15382;47.578;8.086;2023-07-29T11:04:46;26.90;99.90
28069;DHT22;15382;47.578;8.086;2023-07-29T11:14:46;25.60;99.90
28069;DHT22;15382;47.578;8.086;2023-07-29T11:24:47;26.00;99.90
28069;DHT22;15382;47.578;8.086;2023-07-29T11:34:48;26.20;99.90
28069;DHT22;15382;47.578;8.086;2023-07-29T11:44:48;26.50;99.90
28069;DHT22;15382;47.578;8.086;2023-07-29T11:54:49;25.70;99.90
28069;DHT22;15382;47.578;8.086;2023-07-29T12:04:50;25.30;99.90
28069;DHT22;15382;47.578;8.086;2023-07-29T12:14:51;25.20;99.90
28069;DHT22;15382;47.578;8.086;2023-07-29T12:24:51;25.20;99.90
28069;DHT22;15382;47.578;8.086;2023-07-29T12:34:53;25.10;99.90
28069;DHT22;15382;47.578;8.086;2023-07-29T12:44:54;25.10;99.90
28069;DHT22;15382;47.578;8.086;2023-07-29T12:54:55;22.90;99.90
28069;DHT22;15382;47.578;8.086;2023-07-29T13:04:55;21.70;99.90
28069;DHT22;15382;47.578;8.086;2023-07-29T13:14:56;21.20;99.90
28069;DHT22;15382;47.578;8.086;2023-07-29T13:24:56;20.50;99.90
28069;DHT22;15382;47.578;8.086;2023-07-29T13:34:57;20.60;99.90
28069;DHT22;15382;47.578;8.086;2023-07-29T13:45:00;20.60;99.90
28069;DHT22;15382;47.578;8.086;2023-07-29T13:55:01;20.60;99.90
28069;DHT22;15382;47.578;8.086;2023-07-29T14:05:01;20.60;99.90
28069;DHT22;15382;47.578;8.086;2023-07-29T14:15:02;20.40;99.90
28069;DHT22;15382;47.578;8.086;2023-07-29T14:25:03;20.90;99.90
28069;DHT22;15382;47.578;8.086;2023-07-29T14:35:04;21.00;99.90
28069;DHT22;15382;47.578;8.086;2023-07-29T14:45:05;20.90;99.90
28069;DHT22;15382;47.578;8.086;2023-07-29T14:55:06;21.10;99.90
28069;DHT22;15382;47.578;8.086;2023-07-29T15:05:07;20.80;99.90
28069;DHT22;15382;47.578;8.086;2023-07-29T15:15:08;20.60;99.90
28069;DHT22;15382;47.578;8.086;2023-07-29T15:25:09;20.30;99.90
28069;DHT22;15382;47.578;8.086;2023-07-29T15:35:10;19.90;99.90
28069;DHT22;15382;47.578;8.086;2023-07-29T15:45:11;19.80;99.90
28069;DHT22;15382;47.578;8.086;2023-07-29T15:55:12;19.60;99.90
28069;DHT22;15382;47.578;8.086;2023-07-29T16:05:13;19.50;99.90
28069;DHT22;15382;47.578;8.086;2023-07-29T16:15:13;19.50;99.90
28069;DHT22;15382;47.578;8.086;2023-07-29T16:25:14;19.50;99.90
28069;DHT22;15382;47.578;8.086;2023-07-29T16:35:16;19.80;99.90
28069;DHT22;15382;47.578;8.086;2023-07-29T16:45:16;19.80;99.90
28069;DHT22;15382;47.578;8.086;2023-07-29T16:55:17;20.10;99.90
28069;DHT22;15382;47.578;8.086;2023-07-29T17:05:18;20.10;99.90
28069;DHT22;15382;47.578;8.086;2023-07-29T17:15:18;20.10;99.90
28069;DHT22;15382;47.578;8.086;2023-07-29T17:25:19;20.10;99.90
28069;DHT22;15382;47.578;8.086;2023-07-29T17:35:21;20.10;99.90
28069;DHT22;15382;47.578;8.086;2023-07-29T17:45:21;20.00;99.90
28069;DHT22;15382;47.578;8.086;2023-07-29T17:55:22;20.30;99.90
28069;DHT22;15382;47.578;8.086;2023-07-29T18:05:23;20.10;99.90
28069;DHT22;15382;47.578;8.086;2023-07-29T18:15:24;20.10;99.90
28069;DHT22;15382;47.578;8.086;2023-07-29T18:25:24;20.00;99.90
28069;DHT22;15382;47.578;8.086;2023-07-29T18:35:25;19.70;99.90
28069;DHT22;15382;47.578;8.086;2023-07-29T18:45:26;19.60;99.90
28069;DHT22;15382;47.578;8.086;2023-07-29T18:55:29;19.40;99.90
28069;DHT22;15382;47.578;8.086;2023-07-29T19:05:30;18.90;99.90
28069;DHT22;15382;47.578;8.086;2023-07-29T19:15:30;18.80;99.90
28069;DHT22;15382;47.578;8.086;2023-07-29T19:25:31;18.80;99.90
28069;DHT22;15382;47.578;8.086;2023-07-29T19:35:32;18.90;99.90
28069;DHT22;15382;47.578;8.086;2023-07-29T19:45:32;18.60;99.90
28069;DHT22;15382;47.578;8.086;2023-07-29T19:55:33;18.60;99.90
28069;DHT22;15382;47.578;8.086;2023-07-29T20:05:33;18.40;99.90
28069;DHT22;15382;47.578;8.086;2023-07-29T20:15:34;18.00;99.90
28069;DHT22;15382;47.578;8.086;2023-07-29T20:25:35;18.10;99.90
28069;DHT22;15382;47.578;8.086;2023-07-29T20:35:35;18.10;99.90
28069;DHT22;15382;47.578;8.086;2023-07-29T20:45:36;18.10;99.90
28069;DHT22;15382;47.578;8.086;2023-07-29T20:55:37;18.20;99.90
28069;DHT22;15382;47.578;8.086;2023-07-29T21:05:37;18.20;99.90
28069;DHT22;15382;47.578;8.086;2023-07-29T21:15:38;17.70;99.90
28069;DHT22;15382;47.578;8.086;2023-07-29T21:25:39;17.60;99.90
28069;DHT22;15382;47.578;8.086;2023-07-29T21:35:39;17.50;99.90
28069;DHT22;15382;47.578;8.086;2023-07-29T21:45:40;17.70;99.90
28069;DHT22;15382;47.578;8.086;2023-07-29T21:55:41;17.80;99.90
28069;DHT22;15382;47.578;8.086;2023-07-29T22:05:41;17.80;99.90
28069;DHT22;15382;47.578;8.086;2023-07-29T22:15:42;17.70;99.90
28069;DHT22;15382;47.578;8.086;2023-07-29T22:25:43;17.60;99.90
28069;DHT22;15382;47.578;8.086;2023-07-29T22:35:43;17.50;99.90
28069;DHT22;15382;47.578;8.086;2023-07-29T22:45:51;17.30;99.90
28069;DHT22;15382;47.578;8.086;2023-07-29T22:55:51;17.30;99.90
28069;DHT22;15382;47.578;8.086;2023-07-29T23:05:52;16.90;99.90
28069;DHT22;15382;47.578;8.086;2023-07-29T23:15:53;16.60;99.90
28069;DHT22;15382;47.578;8.086;2023-07-29T23:25:54;16.80;99.90
28069;DHT22;15382;47.578;8.086;2023-07-29T23:35:58;16.90;99.90
28069;DHT22;15382;47.578;8.086;2023-07-29T23:45:59;17.00;99.90
28069;DHT22;15382;47.578;8.086;2023-07-29T23:56:00;16.90;99.90
